Time,TemperatureF,DewpointF,PressureIn,WindDirection,WindDirectionDegrees,WindSpeedMPH,WindSpeedGustMPH,Humidity,HourlyPrecipIn,Conditions,Clouds,dailyrainin,SoftwareType,DateUTC
2013-03-17 00:03:00,13.0,5.0,29.89,North,0,0.0,0.0,71,0.00,,,0.00,,2013-03-17 04:03:00,
2013-03-17 00:13:00,13.0,5.0,29.89,North,0,0.0,0.0,71,0.00,,,0.00,,2013-03-17 04:13:00,
2013-03-17 00:23:00,13.0,6.0,29.89,NE,45,0.0,0.0,72,0.00,,,0.00,,2013-03-17 04:23:00,
2013-03-17 00:32:00,13.0,6.0,29.89,NE,45,0.0,0.0,72,0.00,,,0.00,,2013-03-17 04:32:00,
2013-03-17 00:43:00,13.0,6.0,29.89,NE,45,0.0,0.0,72,0.00,,,0.00,,2013-03-17 04:43:00,
2013-03-17 00:53:00,13.0,6.0,29.89,NE,45,0.0,0.0,73,0.00,,,0.00,,2013-03-17 04:53:00,
2013-03-17 01:03:00,13.0,6.0,29.89,NE,45,0.0,0.0,73,0.00,,,0.00,,2013-03-17 05:03:00,
2013-03-17 01:12:00,13.0,6.0,29.89,NE,45,0.0,0.0,73,0.00,,,0.00,,2013-03-17 05:12:00,
2013-03-17 01:22:00,12.0,5.0,29.88,NE,45,0.0,0.0,74,0.00,,,0.00,,2013-03-17 05:22:00,
2013-03-17 01:32:00,12.0,5.0,29.88,NE,45,0.0,0.0,74,0.00,,,0.00,,2013-03-17 05:32:00,
2013-03-17 01:42:00,12.0,5.0,29.88,NE,45,0.0,0.0,74,0.00,,,0.00,,2013-03-17 05:42:00,
2013-03-17 01:52:00,12.0,5.0,29.88,NE,45,0.0,0.0,74,0.00,,,0.00,,2013-03-17 05:52:00,
2013-03-17 02:02:00,12.0,5.0,29.88,ENE,67,0.0,0.0,74,0.00,,,0.00,,2013-03-17 06:02:00,
2013-03-17 02:12:00,12.0,5.0,29.88,ENE,67,0.0,0.0,74,0.00,,,0.00,,2013-03-17 06:12:00,
2013-03-17 02:22:00,13.0,6.0,29.91,ENE,67,0.0,0.0,74,0.00,,,0.00,,2013-03-17 06:22:00,
2013-03-17 02:32:00,13.0,6.0,29.91,ENE,67,0.0,0.0,74,0.00,,,0.00,,2013-03-17 06:32:00,
2013-03-17 02:42:00,13.0,6.0,29.91,ENE,67,0.0,0.0,74,0.00,,,0.00,,2013-03-17 06:42:00,
2013-03-17 02:52:00,12.0,6.0,29.92,ENE,67,0.0,0.0,75,0.00,,,0.00,,2013-03-17 06:52:00,
2013-03-17 03:02:00,12.0,6.0,29.93,ENE,67,0.0,0.0,75,0.00,,,0.00,,2013-03-17 07:02:00,
2013-03-17 03:12:00,12.0,6.0,29.93,ENE,67,0.0,0.0,75,0.00,,,0.00,,2013-03-17 07:12:00,
2013-03-17 03:22:00,12.0,6.0,29.92,ENE,67,0.0,0.0,75,0.00,,,0.00,,2013-03-17 07:22:00,
2013-03-17 03:32:00,13.0,7.0,29.92,ENE,67,0.0,0.0,76,0.00,,,0.00,,2013-03-17 07:32:00,
2013-03-17 03:42:00,13.0,7.0,29.92,ENE,67,0.0,0.0,76,0.00,,,0.00,,2013-03-17 07:42:00,
2013-03-17 03:52:00,13.0,7.0,29.91,NE,45,0.0,0.0,76,0.00,,,0.00,,2013-03-17 07:52:00,
2013-03-17 04:03:00,13.0,7.0,29.91,NE,45,0.0,0.0,76,0.00,,,0.00,,2013-03-17 08:03:00,
2013-03-17 04:13:00,14.0,8.0,29.91,NNE,22,0.0,0.0,77,0.00,,,0.00,,2013-03-17 08:13:00,
2013-03-17 04:22:00,14.0,8.0,29.91,NNE,22,0.0,0.0,77,0.00,,,0.00,,2013-03-17 08:22:00,
2013-03-17 04:32:00,15.0,9.0,29.93,North,0,0.0,2.0,76,0.00,,,0.00,,2013-03-17 08:32:00,
2013-03-17 04:42:00,15.0,9.0,29.93,North,0,0.0,2.0,76,0.00,,,0.00,,2013-03-17 08:42:00,
2013-03-17 04:52:00,15.0,9.0,29.91,North,0,0.0,0.0,76,0.00,,,0.00,,2013-03-17 08:52:00,
2013-03-17 05:03:00,15.0,9.0,29.92,North,0,2.0,4.0,76,0.00,,,0.00,,2013-03-17 09:03:00,
2013-03-17 05:12:00,15.0,9.0,29.92,North,0,2.0,4.0,76,0.00,,,0.00,,2013-03-17 09:12:00,
2013-03-17 05:22:00,16.0,10.0,29.93,North,0,2.0,4.0,76,0.00,,,0.00,,2013-03-17 09:22:00,
2013-03-17 05:32:00,17.0,11.0,29.93,North,0,2.0,3.0,76,0.00,,,0.00,,2013-03-17 09:32:00,
2013-03-17 05:43:00,17.0,11.0,29.93,North,0,2.0,3.0,76,0.00,,,0.00,,2013-03-17 09:43:00,
2013-03-17 05:53:00,18.0,12.0,29.95,NNW,340,3.0,5.0,76,0.00,,,0.00,,2013-03-17 09:53:00,
2013-03-17 06:03:00,18.0,12.0,29.95,North,352,2.0,7.0,76,0.00,,,0.00,,2013-03-17 10:03:00,
2013-03-17 06:13:00,18.0,12.0,29.95,North,352,2.0,7.0,76,0.00,,,0.00,,2013-03-17 10:13:00,
2013-03-17 06:23:00,19.0,13.0,29.96,NNW,337,2.0,6.0,76,0.00,,,0.00,,2013-03-17 10:23:00,
2013-03-17 06:33:00,19.0,13.0,29.96,North,352,4.0,7.0,77,0.00,,,0.00,,2013-03-17 10:33:00,
2013-03-17 06:42:00,19.0,13.0,29.96,North,352,4.0,7.0,77,0.00,,,0.00,,2013-03-17 10:42:00,
2013-03-17 06:52:00,19.0,13.0,29.98,North,355,4.0,8.0,77,0.00,,,0.00,,2013-03-17 10:52:00,
2013-03-17 07:02:00,19.0,13.0,29.97,North,354,3.0,9.0,77,0.00,,,0.00,,2013-03-17 11:02:00,
2013-03-17 07:12:00,19.0,13.0,29.97,North,354,3.0,9.0,77,0.00,,,0.00,,2013-03-17 11:12:00,
2013-03-17 07:22:00,18.0,12.0,29.98,North,357,4.0,7.0,77,0.00,,,0.00,,2013-03-17 11:22:00,
2013-03-17 07:32:00,18.0,12.0,29.98,North,0,2.0,5.0,77,0.00,,,0.00,,2013-03-17 11:32:00,
2013-03-17 07:42:00,18.0,12.0,29.98,North,0,2.0,5.0,77,0.00,,,0.00,,2013-03-17 11:42:00,
2013-03-17 07:52:00,18.0,12.0,29.99,NNW,348,3.0,4.0,77,0.00,,,0.00,,2013-03-17 11:52:00,
2013-03-17 08:02:00,18.0,12.0,29.99,North,356,3.0,5.0,77,0.00,,,0.00,,2013-03-17 12:02:00,
2013-03-17 08:12:00,18.0,12.0,29.99,North,356,3.0,5.0,77,0.00,,,0.00,,2013-03-17 12:12:00,
2013-03-17 08:22:00,18.0,12.0,30.00,NNE,22,0.0,0.0,77,0.00,,,0.00,,2013-03-17 12:22:00,
2013-03-17 08:33:00,18.0,12.0,30.01,NNE,22,0.0,2.0,77,0.00,,,0.00,,2013-03-17 12:33:00,
2013-03-17 08:43:00,18.0,12.0,30.01,NNE,22,0.0,2.0,77,0.00,,,0.00,,2013-03-17 12:43:00,
2013-03-17 08:52:00,18.0,12.0,30.01,NNE,22,0.0,0.0,77,0.00,,,0.00,,2013-03-17 12:52:00,
2013-03-17 09:02:00,20.0,14.0,30.02,NNE,17,2.0,3.0,77,0.00,,,0.00,,2013-03-17 13:02:00,
2013-03-17 09:12:00,20.0,14.0,30.02,NNE,17,2.0,3.0,77,0.00,,,0.00,,2013-03-17 13:12:00,
2013-03-17 09:22:00,21.0,14.0,30.04,NNE,22,5.0,8.0,75,0.00,,,0.00,,2013-03-17 13:22:00,
2013-03-17 09:32:00,23.0,16.0,30.04,North,7,5.0,6.0,73,0.00,,,0.00,,2013-03-17 13:32:00,
2013-03-17 09:42:00,23.0,16.0,30.04,North,7,5.0,6.0,73,0.00,,,0.00,,2013-03-17 13:42:00,
2013-03-17 09:52:00,24.0,16.0,30.04,NNW,343,3.0,5.0,70,0.00,,,0.00,,2013-03-17 13:52:00,
2013-03-17 10:02:00,25.0,16.0,30.05,North,0,4.0,8.0,67,0.00,,,0.00,,2013-03-17 14:02:00,
2013-03-17 10:12:00,25.0,16.0,30.05,North,0,4.0,8.0,67,0.00,,,0.00,,2013-03-17 14:12:00,
2013-03-17 10:22:00,24.0,14.0,30.06,NNE,23,4.0,7.0,64,0.00,,,0.00,,2013-03-17 14:22:00,
2013-03-17 10:32:00,25.0,13.0,30.06,NNE,14,6.0,9.0,61,0.00,,,0.00,,2013-03-17 14:32:00,
2013-03-17 10:42:00,25.0,13.0,30.06,NNE,14,6.0,9.0,61,0.00,,,0.00,,2013-03-17 14:42:00,
2013-03-17 10:53:00,26.0,13.0,30.06,North,357,6.0,10.0,57,0.00,,,0.00,,2013-03-17 14:53:00,
2013-03-17 11:02:00,26.0,13.0,30.07,North,349,5.0,8.0,57,0.00,,,0.00,,2013-03-17 15:02:00,
2013-03-17 11:12:00,26.0,13.0,30.07,North,349,5.0,8.0,57,0.00,,,0.00,,2013-03-17 15:12:00,
2013-03-17 11:23:00,28.0,14.0,30.08,NNW,342,4.0,8.0,56,0.00,,,0.00,,2013-03-17 15:23:00,
2013-03-17 11:33:00,29.0,14.0,30.08,North,355,5.0,8.0,54,0.00,,,0.00,,2013-03-17 15:33:00,
2013-03-17 11:43:00,29.0,14.0,30.08,North,355,5.0,8.0,54,0.00,,,0.00,,2013-03-17 15:43:00,
2013-03-17 11:53:00,29.0,14.0,30.08,NNW,346,5.0,8.0,52,0.00,,,0.00,,2013-03-17 15:53:00,
2013-03-17 12:03:00,29.0,13.0,30.08,WNW,293,4.0,9.0,51,0.00,,,0.00,,2013-03-17 16:03:00,
2013-03-17 12:12:00,29.0,13.0,30.08,WNW,293,4.0,9.0,51,0.00,,,0.00,,2013-03-17 16:12:00,
2013-03-17 12:23:00,29.0,14.0,30.09,NW,322,3.0,9.0,52,0.00,,,0.00,,2013-03-17 16:23:00,
2013-03-17 12:33:00,30.0,14.0,30.09,North,11,3.0,9.0,50,0.00,,,0.00,,2013-03-17 16:33:00,
2013-03-17 12:43:00,30.0,14.0,30.09,North,11,3.0,9.0,50,0.00,,,0.00,,2013-03-17 16:43:00,
2013-03-17 12:52:00,31.0,14.0,30.10,NNW,342,4.0,7.0,49,0.00,,,0.00,,2013-03-17 16:52:00,
2013-03-17 13:02:00,30.0,13.0,30.11,NNW,332,6.0,12.0,48,0.00,,,0.00,,2013-03-17 17:02:00,
2013-03-17 13:12:00,30.0,13.0,30.11,NNW,332,6.0,12.0,48,0.00,,,0.00,,2013-03-17 17:12:00,
2013-03-17 13:22:00,29.0,11.0,30.11,NW,320,4.0,13.0,47,0.00,,,0.00,,2013-03-17 17:22:00,
2013-03-17 13:33:00,30.0,12.0,30.11,NNW,331,8.0,14.0,46,0.02,,,0.02,,2013-03-17 17:33:00,
2013-03-17 13:42:00,30.0,12.0,30.11,NNW,331,8.0,14.0,46,0.02,,,0.02,,2013-03-17 17:42:00,
2013-03-17 13:53:00,30.0,12.0,30.11,NW,323,6.0,16.0,46,0.02,,,0.02,,2013-03-17 17:53:00,
2013-03-17 14:02:00,31.0,12.0,30.11,NNE,23,8.0,13.0,45,0.02,,,0.02,,2013-03-17 18:02:00,
2013-03-17 14:12:00,31.0,12.0,30.11,NNE,23,8.0,13.0,45,0.02,,,0.02,,2013-03-17 18:12:00,
2013-03-17 14:22:00,30.0,12.0,30.11,NNW,348,5.0,13.0,46,0.02,,,0.02,,2013-03-17 18:22:00,
2013-03-17 14:32:00,29.0,11.0,30.11,NNW,347,5.0,9.0,47,0.00,,,0.02,,2013-03-17 18:32:00,
2013-03-17 14:42:00,29.0,11.0,30.11,NNW,347,5.0,9.0,47,0.00,,,0.02,,2013-03-17 18:42:00,
2013-03-17 14:52:00,29.0,11.0,30.11,North,358,4.0,9.0,47,0.00,,,0.02,,2013-03-17 18:52:00,
2013-03-17 15:02:00,30.0,12.0,30.11,NNW,344,5.0,11.0,47,0.00,,,0.02,,2013-03-17 19:02:00,
2013-03-17 15:12:00,30.0,12.0,30.11,NNW,344,5.0,11.0,47,0.00,,,0.02,,2013-03-17 19:12:00,
2013-03-17 15:22:00,30.0,12.0,30.11,NW,312,3.0,6.0,47,0.00,,,0.02,,2013-03-17 19:22:00,
2013-03-17 15:33:00,31.0,13.0,30.11,North,7,4.0,9.0,47,0.00,,,0.02,,2013-03-17 19:33:00,
2013-03-17 15:42:00,31.0,13.0,30.11,North,7,4.0,9.0,47,0.00,,,0.02,,2013-03-17 19:42:00,
2013-03-17 15:53:00,31.0,13.0,30.11,NW,326,3.0,8.0,47,0.00,,,0.02,,2013-03-17 19:53:00,
2013-03-17 16:02:00,31.0,13.0,30.11,North,357,5.0,8.0,46,0.00,,,0.02,,2013-03-17 20:02:00,
2013-03-17 16:12:00,31.0,13.0,30.11,North,357,5.0,8.0,46,0.00,,,0.02,,2013-03-17 20:12:00,
2013-03-17 16:22:00,31.0,13.0,30.12,NNW,330,2.0,10.0,46,0.00,,,0.02,,2013-03-17 20:22:00,
2013-03-17 16:33:00,30.0,12.0,30.13,North,4,5.0,12.0,47,0.00,,,0.02,,2013-03-17 20:33:00,
2013-03-17 16:42:00,30.0,12.0,30.13,North,4,5.0,12.0,47,0.00,,,0.02,,2013-03-17 20:42:00,
2013-03-17 16:52:00,31.0,13.0,30.13,NW,323,5.0,7.0,47,0.00,,,0.02,,2013-03-17 20:52:00,
2013-03-17 17:03:00,31.0,13.0,30.13,North,2,4.0,8.0,47,0.00,,,0.02,,2013-03-17 21:03:00,
2013-03-17 17:12:00,31.0,13.0,30.13,North,2,4.0,8.0,47,0.00,,,0.02,,2013-03-17 21:12:00,
2013-03-17 17:22:00,30.0,13.0,30.14,NNW,347,3.0,7.0,48,0.00,,,0.02,,2013-03-17 21:22:00,
2013-03-17 17:33:00,30.0,12.0,30.14,NNW,335,5.0,10.0,47,0.00,,,0.02,,2013-03-17 21:33:00,
2013-03-17 17:43:00,30.0,12.0,30.14,NNW,335,5.0,10.0,47,0.00,,,0.02,,2013-03-17 21:43:00,
2013-03-17 17:52:00,30.0,12.0,30.14,NNW,327,3.0,9.0,46,0.00,,,0.02,,2013-03-17 21:52:00,
2013-03-17 18:03:00,28.0,10.0,30.15,North,357,6.0,10.0,47,0.00,,,0.02,,2013-03-17 22:03:00,
2013-03-17 18:13:00,27.0,10.0,30.16,North,355,6.0,11.0,48,0.00,,,0.02,,2013-03-17 22:13:00,
2013-03-17 18:23:00,27.0,10.0,30.16,North,355,6.0,11.0,48,0.00,,,0.02,,2013-03-17 22:23:00,
2013-03-17 18:33:00,27.0,10.0,30.16,North,353,4.0,9.0,49,0.00,,,0.02,,2013-03-17 22:33:00,
2013-03-17 18:42:00,27.0,10.0,30.16,North,353,4.0,9.0,49,0.00,,,0.02,,2013-03-17 22:42:00,
2013-03-17 18:53:00,27.0,10.0,30.16,NW,325,3.0,9.0,49,0.00,,,0.02,,2013-03-17 22:53:00,
2013-03-17 19:03:00,26.0,10.0,30.16,North,351,3.0,5.0,50,0.00,,,0.02,,2013-03-17 23:03:00,
2013-03-17 19:12:00,26.0,10.0,30.16,North,351,3.0,5.0,50,0.00,,,0.02,,2013-03-17 23:12:00,
2013-03-17 19:22:00,25.0,9.0,30.17,NNW,340,3.0,7.0,50,0.00,,,0.02,,2013-03-17 23:22:00,
2013-03-17 19:33:00,23.0,8.0,30.17,NNW,342,4.0,7.0,51,0.00,,,0.02,,2013-03-17 23:33:00,
2013-03-17 19:42:00,23.0,8.0,30.17,NNW,342,4.0,7.0,51,0.00,,,0.02,,2013-03-17 23:42:00,
2013-03-17 19:53:00,22.0,7.0,30.18,North,0,2.0,5.0,52,0.00,,,0.02,,2013-03-17 23:53:00,
2013-03-17 20:03:00,21.0,7.0,30.18,North,5,2.0,6.0,53,0.00,,,0.02,,2013-03-18 00:03:00,
2013-03-17 20:12:00,21.0,7.0,30.18,North,5,2.0,6.0,53,0.00,,,0.02,,2013-03-18 00:12:00,
2013-03-17 20:22:00,21.0,7.0,30.18,NNE,22,0.0,5.0,55,0.00,,,0.02,,2013-03-18 00:22:00,
2013-03-17 20:33:00,20.0,7.0,30.19,NNE,22,2.0,3.0,56,0.00,,,0.02,,2013-03-18 00:33:00,
2013-03-17 20:42:00,20.0,7.0,30.19,NNE,22,2.0,3.0,56,0.00,,,0.02,,2013-03-18 00:42:00,
2013-03-17 20:53:00,20.0,7.0,30.19,NNE,25,2.0,4.0,57,0.00,,,0.02,,2013-03-18 00:53:00,
2013-03-17 21:02:00,19.0,7.0,30.20,NNE,22,2.0,5.0,58,0.00,,,0.02,,2013-03-18 01:02:00,
2013-03-17 21:12:00,19.0,7.0,30.20,NNE,22,2.0,5.0,58,0.00,,,0.02,,2013-03-18 01:12:00,
2013-03-17 21:22:00,19.0,7.0,30.21,NNE,22,1.0,4.0,58,0.00,,,0.02,,2013-03-18 01:22:00,
2013-03-17 21:32:00,19.0,7.0,30.21,NNE,28,3.0,4.0,58,0.00,,,0.02,,2013-03-18 01:32:00,
2013-03-17 21:42:00,19.0,7.0,30.21,NNE,28,3.0,4.0,58,0.00,,,0.02,,2013-03-18 01:42:00,
2013-03-17 21:52:00,19.0,7.0,30.22,NE,45,0.0,0.0,58,0.00,,,0.02,,2013-03-18 01:52:00,
2013-03-17 22:02:00,18.0,6.0,30.21,NNE,22,0.0,5.0,58,0.00,,,0.02,,2013-03-18 02:02:00,
2013-03-17 22:12:00,18.0,6.0,30.21,NNE,22,0.0,5.0,58,0.00,,,0.02,,2013-03-18 02:12:00,
2013-03-17 22:22:00,18.0,6.0,30.22,NNE,22,0.0,0.0,59,0.00,,,0.02,,2013-03-18 02:22:00,
2013-03-17 22:32:00,16.0,4.0,30.22,NNE,22,0.0,0.0,59,0.00,,,0.02,,2013-03-18 02:32:00,
2013-03-17 22:42:00,16.0,4.0,30.22,NNE,22,0.0,0.0,59,0.00,,,0.02,,2013-03-18 02:42:00,
2013-03-17 22:52:00,16.0,5.0,30.22,NNE,22,0.0,0.0,61,0.00,,,0.02,,2013-03-18 02:52:00,
2013-03-17 23:03:00,15.0,5.0,30.22,ENE,67,0.0,0.0,63,0.00,,,0.02,,2013-03-18 03:03:00,
2013-03-17 23:11:00,15.0,5.0,30.22,ENE,67,0.0,0.0,63,0.00,,,0.02,,2013-03-18 03:11:00,
2013-03-17 23:22:00,15.0,5.0,30.22,ENE,67,0.0,0.0,63,0.00,,,0.02,,2013-03-18 03:22:00,
2013-03-17 23:33:00,15.0,5.0,30.23,ENE,67,0.0,0.0,64,0.00,,,0.02,,2013-03-18 03:33:00,
2013-03-17 23:42:00,15.0,5.0,30.23,ENE,67,0.0,0.0,64,0.00,,,0.02,,2013-03-18 03:42:00,
2013-03-17 23:53:00,15.0,5.0,30.24,ENE,67,0.0,0.0,64,0.00,,,0.02,,2013-03-18 03:53:00,